sensor_id;sensor_type;location;lat;lon;timestamp;P1;durP1;ratioP1;P2;durP2;ratioP2
22573;SDS011;11453;52.052;20.430;2022-09-09T00:15:20;11.60;;;6.38;;
22573;SDS011;11453;52.052;20.430;2022-09-09T00:28:52;12.10;;;6.65;;
22573;SDS011;11453;52.052;20.430;2022-09-09T00:31:32;12.20;;;6.78;;
22573;SDS011;11453;52.052;20.430;2022-09-09T00:33:58;13.80;;;6.57;;
22573;SDS011;11453;52.052;20.430;2022-09-09T00:36:46;11.90;;;6.47;;
22573;SDS011;11453;52.052;20.430;2022-09-09T00:42:13;12.25;;;6.85;;
22573;SDS011;11453;52.052;20.430;2022-09-09T00:45:45;12.73;;;7.13;;
22573;SDS011;11453;52.052;20.430;2022-09-09T00:58:07;12.32;;;6.50;;
22573;SDS011;11453;52.052;20.430;2022-09-09T01:11:42;12.48;;;7.00;;
22573;SDS011;11453;52.052;20.430;2022-09-09T01:14:31;12.63;;;6.93;;
22573;SDS011;11453;52.052;20.430;2022-09-09T01:17:02;15.52;;;6.78;;
22573;SDS011;11453;52.052;20.430;2022-09-09T01:20:02;14.52;;;7.45;;
22573;SDS011;11453;52.052;20.430;2022-09-09T01:22:35;13.85;;;7.45;;
22573;SDS011;11453;52.052;20.430;2022-09-09T01:28:08;13.48;;;6.95;;
22573;SDS011;11453;52.052;20.430;2022-09-09T01:30:48;16.33;;;7.83;;
22573;SDS011;11453;52.052;20.430;2022-09-09T01:33:15;14.80;;;8.00;;
22573;SDS011;11453;52.052;20.430;2022-09-09T01:38:13;13.75;;;7.97;;
22573;SDS011;11453;52.052;20.430;2022-09-09T01:40:39;13.45;;;7.47;;
22573;SDS011;11453;52.052;20.430;2022-09-09T01:43:05;13.32;;;7.97;;
22573;SDS011;11453;52.052;20.430;2022-09-09T01:45:32;13.60;;;8.15;;
22573;SDS011;11453;52.052;20.430;2022-09-09T01:47:59;13.93;;;7.75;;
22573;SDS011;11453;52.052;20.430;2022-09-09T01:50:25;16.73;;;7.65;;
22573;SDS011;11453;52.052;20.430;2022-09-09T01:52:57;13.95;;;7.60;;
22573;SDS011;11453;52.052;20.430;2022-09-09T01:55:31;15.80;;;8.10;;
22573;SDS011;11453;52.052;20.430;2022-09-09T02:01:02;15.73;;;8.80;;
22573;SDS011;11453;52.052;20.430;2022-09-09T02:03:55;13.93;;;7.95;;
22573;SDS011;11453;52.052;20.430;2022-09-09T02:06:27;16.90;;;8.30;;
22573;SDS011;11453;52.052;20.430;2022-09-09T02:09:02;15.18;;;8.50;;
22573;SDS011;11453;52.052;20.430;2022-09-09T02:11:35;15.05;;;8.18;;
22573;SDS011;11453;52.052;20.430;2022-09-09T02:14:46;16.63;;;8.90;;
22573;SDS011;11453;52.052;20.430;2022-09-09T02:16:59;14.98;;;8.68;;
22573;SDS011;11453;52.052;20.430;2022-09-09T02:19:32;16.63;;;8.57;;
22573;SDS011;11453;52.052;20.430;2022-09-09T02:22:07;14.63;;;8.57;;
22573;SDS011;11453;52.052;20.430;2022-09-09T02:24:34;16.48;;;9.13;;
22573;SDS011;11453;52.052;20.430;2022-09-09T02:27:02;14.85;;;9.30;;
22573;SDS011;11453;52.052;20.430;2022-09-09T02:29:36;15.55;;;9.45;;
22573;SDS011;11453;52.052;20.430;2022-09-09T02:32:07;16.60;;;9.45;;
22573;SDS011;11453;52.052;20.430;2022-09-09T02:34:39;17.42;;;9.43;;
22573;SDS011;11453;52.052;20.430;2022-09-09T02:37:08;16.95;;;9.73;;
22573;SDS011;11453;52.052;20.430;2022-09-09T02:39:36;15.45;;;9.30;;
22573;SDS011;11453;52.052;20.430;2022-09-09T02:42:03;20.33;;;9.68;;
22573;SDS011;11453;52.052;20.430;2022-09-09T02:44:29;17.77;;;10.05;;
22573;SDS011;11453;52.052;20.430;2022-09-09T02:47:09;20.42;;;10.30;;
22573;SDS011;11453;52.052;20.430;2022-09-09T02:55:14;19.70;;;10.60;;
22573;SDS011;11453;52.052;20.430;2022-09-09T02:58:01;15.18;;;10.30;;
22573;SDS011;11453;52.052;20.430;2022-09-09T03:00:31;17.95;;;10.48;;
22573;SDS011;11453;52.052;20.430;2022-09-09T03:02:57;18.20;;;11.38;;
22573;SDS011;11453;52.052;20.430;2022-09-09T03:05:24;18.20;;;11.07;;
22573;SDS011;11453;52.052;20.430;2022-09-09T03:07:50;19.50;;;11.63;;
22573;SDS011;11453;52.052;20.430;2022-09-09T03:10:16;19.58;;;11.55;;
22573;SDS011;11453;52.052;20.430;2022-09-09T03:12:42;19.52;;;11.13;;
22573;SDS011;11453;52.052;20.430;2022-09-09T03:15:08;17.35;;;11.32;;
22573;SDS011;11453;52.052;20.430;2022-09-09T03:17:34;19.02;;;11.32;;
22573;SDS011;11453;52.052;20.430;2022-09-09T03:20:01;18.50;;;11.25;;
22573;SDS011;11453;52.052;20.430;2022-09-09T03:22:28;17.27;;;11.05;;
22573;SDS011;11453;52.052;20.430;2022-09-09T03:24:53;18.88;;;11.07;;
22573;SDS011;11453;52.052;20.430;2022-09-09T03:27:19;17.88;;;11.40;;
22573;SDS011;11453;52.052;20.430;2022-09-09T03:29:45;16.67;;;11.32;;
22573;SDS011;11453;52.052;20.430;2022-09-09T03:32:11;18.02;;;11.05;;
22573;SDS011;11453;52.052;20.430;2022-09-09T03:34:37;19.15;;;11.88;;
22573;SDS011;11453;52.052;20.430;2022-09-09T03:37:05;18.08;;;11.40;;
22573;SDS011;11453;52.052;20.430;2022-09-09T03:39:31;19.70;;;11.55;;
22573;SDS011;11453;52.052;20.430;2022-09-09T03:41:57;18.27;;;11.35;;
22573;SDS011;11453;52.052;20.430;2022-09-09T03:44:23;16.05;;;11.30;;
22573;SDS011;11453;52.052;20.430;2022-09-09T03:46:48;19.42;;;11.50;;
22573;SDS011;11453;52.052;20.430;2022-09-09T03:49:14;19.35;;;11.57;;
22573;SDS011;11453;52.052;20.430;2022-09-09T03:51:40;16.88;;;11.10;;
22573;SDS011;11453;52.052;20.430;2022-09-09T03:54:06;18.33;;;11.32;;
22573;SDS011;11453;52.052;20.430;2022-09-09T03:56:35;19.35;;;10.95;;
22573;SDS011;11453;52.052;20.430;2022-09-09T03:59:01;16.00;;;11.02;;
22573;SDS011;11453;52.052;20.430;2022-09-09T04:01:27;16.98;;;11.45;;
22573;SDS011;11453;52.052;20.430;2022-09-09T04:03:53;15.98;;;10.13;;
22573;SDS011;11453;52.052;20.430;2022-09-09T04:06:23;16.50;;;11.48;;
22573;SDS011;11453;52.052;20.430;2022-09-09T04:08:49;17.98;;;11.23;;
22573;SDS011;11453;52.052;20.430;2022-09-09T04:11:17;17.00;;;11.13;;
22573;SDS011;11453;52.052;20.430;2022-09-09T04:13:43;17.75;;;11.65;;
22573;SDS011;11453;52.052;20.430;2022-09-09T04:16:10;17.70;;;11.52;;
22573;SDS011;11453;52.052;20.430;2022-09-09T04:18:38;18.02;;;11.30;;
22573;SDS011;11453;52.052;20.430;2022-09-09T04:21:04;16.75;;;10.50;;
22573;SDS011;11453;52.052;20.430;2022-09-09T04:23:31;17.10;;;11.15;;
22573;SDS011;11453;52.052;20.430;2022-09-09T04:25:59;17.58;;;11.45;;
22573;SDS011;11453;52.052;20.430;2022-09-09T04:28:27;18.25;;;10.90;;
22573;SDS011;11453;52.052;20.430;2022-09-09T04:30:55;16.70;;;11.25;;
22573;SDS011;11453;52.052;20.430;2022-09-09T04:33:23;20.90;;;12.05;;
22573;SDS011;11453;52.052;20.430;2022-09-09T04:35:51;18.35;;;11.80;;
22573;SDS011;11453;52.052;20.430;2022-09-09T04:38:18;16.60;;;10.55;;
22573;SDS011;11453;52.052;20.430;2022-09-09T04:40:48;18.75;;;11.50;;
22573;SDS011;11453;52.052;20.430;2022-09-09T04:43:16;17.37;;;11.60;;
22573;SDS011;11453;52.052;20.430;2022-09-09T04:45:44;18.40;;;11.48;;
22573;SDS011;11453;52.052;20.430;2022-09-09T04:48:12;19.27;;;11.85;;
22573;SDS011;11453;52.052;20.430;2022-09-09T04:50:38;17.42;;;11.93;;
22573;SDS011;11453;52.052;20.430;2022-09-09T04:53:05;15.80;;;11.52;;
22573;SDS011;11453;52.052;20.430;2022-09-09T04:55:32;17.77;;;12.07;;
22573;SDS011;11453;52.052;20.430;2022-09-09T04:58:05;16.27;;;11.55;;
22573;SDS011;11453;52.052;20.430;2022-09-09T05:00:33;17.33;;;11.63;;
22573;SDS011;11453;52.052;20.430;2022-09-09T05:03:03;19.88;;;12.32;;
22573;SDS011;11453;52.052;20.430;2022-09-09T05:05:30;20.00;;;11.98;;
22573;SDS011;11453;52.052;20.430;2022-09-09T05:08:03;18.98;;;12.40;;
22573;SDS011;11453;52.052;20.430;2022-09-09T05:10:30;20.65;;;11.68;;
22573;SDS011;11453;52.052;20.430;2022-09-09T05:12:57;18.73;;;12.45;;
22573;SDS011;11453;52.052;20.430;2022-09-09T05:15:23;18.10;;;11.88;;
22573;SDS011;11453;52.052;20.430;2022-09-09T05:17:48;18.50;;;12.32;;
22573;SDS011;11453;52.052;20.430;2022-09-09T05:20:14;20.38;;;12.45;;
22573;SDS011;11453;52.052;20.430;2022-09-09T05:22:40;19.67;;;12.82;;
22573;SDS011;11453;52.052;20.430;2022-09-09T05:25:06;17.67;;;12.70;;
22573;SDS011;11453;52.052;20.430;2022-09-09T05:27:33;18.95;;;11.90;;
22573;SDS011;11453;52.052;20.430;2022-09-09T05:29:59;18.33;;;12.52;;
22573;SDS011;11453;52.052;20.430;2022-09-09T05:32:25;18.23;;;12.30;;
22573;SDS011;11453;52.052;20.430;2022-09-09T05:34:51;20.38;;;12.70;;
22573;SDS011;11453;52.052;20.430;2022-09-09T05:37:17;21.30;;;12.73;;
22573;SDS011;11453;52.052;20.430;2022-09-09T05:39:43;20.50;;;12.80;;
22573;SDS011;11453;52.052;20.430;2022-09-09T05:42:09;20.33;;;12.65;;
22573;SDS011;11453;52.052;20.430;2022-09-09T05:44:35;20.88;;;13.50;;
22573;SDS011;11453;52.052;20.430;2022-09-09T05:47:00;20.10;;;13.10;;
22573;SDS011;11453;52.052;20.430;2022-09-09T05:49:26;18.98;;;13.18;;
22573;SDS011;11453;52.052;20.430;2022-09-09T05:51:52;20.05;;;13.35;;
22573;SDS011;11453;52.052;20.430;2022-09-09T05:54:18;21.23;;;13.50;;
22573;SDS011;11453;52.052;20.430;2022-09-09T05:56:43;26.00;;;14.18;;
22573;SDS011;11453;52.052;20.430;2022-09-09T05:59:09;24.90;;;14.13;;
22573;SDS011;11453;52.052;20.430;2022-09-09T06:01:36;21.77;;;13.45;;
22573;SDS011;11453;52.052;20.430;2022-09-09T06:04:05;21.30;;;13.75;;
22573;SDS011;11453;52.052;20.430;2022-09-09T06:06:33;22.52;;;13.60;;
22573;SDS011;11453;52.052;20.430;2022-09-09T06:09:01;24.60;;;14.65;;
22573;SDS011;11453;52.052;20.430;2022-09-09T06:11:31;25.52;;;16.45;;
22573;SDS011;11453;52.052;20.430;2022-09-09T06:13:58;27.25;;;18.00;;
22573;SDS011;11453;52.052;20.430;2022-09-09T06:16:25;36.88;;;21.75;;
22573;SDS011;11453;52.052;20.430;2022-09-09T06:18:52;34.72;;;21.65;;
22573;SDS011;11453;52.052;20.430;2022-09-09T06:23:47;26.92;;;16.92;;
22573;SDS011;11453;52.052;20.430;2022-09-09T06:26:17;26.90;;;16.67;;
22573;SDS011;11453;52.052;20.430;2022-09-09T06:28:48;24.95;;;16.13;;
22573;SDS011;11453;52.052;20.430;2022-09-09T06:31:16;25.70;;;15.57;;
22573;SDS011;11453;52.052;20.430;2022-09-09T06:33:46;25.00;;;16.33;;
22573;SDS011;11453;52.052;20.430;2022-09-09T06:36:13;26.83;;;15.25;;
22573;SDS011;11453;52.052;20.430;2022-09-09T06:38:41;26.67;;;16.27;;
22573;SDS011;11453;52.052;20.430;2022-09-09T06:41:08;27.00;;;14.90;;
22573;SDS011;11453;52.052;20.430;2022-09-09T06:43:35;25.02;;;14.68;;
22573;SDS011;11453;52.052;20.430;2022-09-09T06:46:02;24.35;;;13.93;;
22573;SDS011;11453;52.052;20.430;2022-09-09T06:48:41;24.85;;;14.88;;
22573;SDS011;11453;52.052;20.430;2022-09-09T06:53:33;28.65;;;15.27;;
22573;SDS011;11453;52.052;20.430;2022-09-09T06:56:23;30.88;;;15.77;;
22573;SDS011;11453;52.052;20.430;2022-09-09T06:58:53;27.50;;;14.85;;
22573;SDS011;11453;52.052;20.430;2022-09-09T07:01:26;25.40;;;15.35;;
22573;SDS011;11453;52.052;20.430;2022-09-09T07:03:54;28.45;;;15.05;;
22573;SDS011;11453;52.052;20.430;2022-09-09T07:06:24;28.38;;;15.68;;
22573;SDS011;11453;52.052;20.430;2022-09-09T07:08:55;31.80;;;17.20;;
22573;SDS011;11453;52.052;20.430;2022-09-09T07:11:25;29.13;;;16.52;;
22573;SDS011;11453;52.052;20.430;2022-09-09T07:13:53;28.20;;;16.15;;
22573;SDS011;11453;52.052;20.430;2022-09-09T07:16:20;27.85;;;16.60;;
22573;SDS011;11453;52.052;20.430;2022-09-09T07:18:50;27.88;;;15.15;;
22573;SDS011;11453;52.052;20.430;2022-09-09T07:21:26;31.55;;;15.65;;
22573;SDS011;11453;52.052;20.430;2022-09-09T07:23:53;30.10;;;16.45;;
22573;SDS011;11453;52.052;20.430;2022-09-09T07:26:20;29.40;;;15.68;;
22573;SDS011;11453;52.052;20.430;2022-09-09T07:28:47;30.65;;;17.20;;
22573;SDS011;11453;52.052;20.430;2022-09-09T07:31:14;31.67;;;16.90;;
22573;SDS011;11453;52.052;20.430;2022-09-09T07:33:45;30.75;;;17.05;;
22573;SDS011;11453;52.052;20.430;2022-09-09T07:36:13;31.38;;;17.13;;
22573;SDS011;11453;52.052;20.430;2022-09-09T07:38:47;32.10;;;17.55;;
22573;SDS011;11453;52.052;20.430;2022-09-09T07:41:25;29.25;;;16.83;;
22573;SDS011;11453;52.052;20.430;2022-09-09T07:43:59;39.00;;;17.23;;
22573;SDS011;11453;52.052;20.430;2022-09-09T07:46:28;33.17;;;17.38;;
22573;SDS011;11453;52.052;20.430;2022-09-09T07:48:54;34.95;;;17.40;;
22573;SDS011;11453;52.052;20.430;2022-09-09T07:51:25;30.73;;;17.08;;
22573;SDS011;11453;52.052;20.430;2022-09-09T07:53:54;32.97;;;18.45;;
22573;SDS011;11453;52.052;20.430;2022-09-09T07:56:23;35.85;;;17.27;;
22573;SDS011;11453;52.052;20.430;2022-09-09T07:58:50;36.67;;;16.75;;
22573;SDS011;11453;52.052;20.430;2022-09-09T08:01:17;34.20;;;17.48;;
22573;SDS011;11453;52.052;20.430;2022-09-09T08:03:45;35.15;;;17.23;;
22573;SDS011;11453;52.052;20.430;2022-09-09T08:06:13;38.03;;;18.40;;
22573;SDS011;11453;52.052;20.430;2022-09-09T08:08:39;35.05;;;17.38;;
22573;SDS011;11453;52.052;20.430;2022-09-09T08:11:13;39.47;;;17.73;;
22573;SDS011;11453;52.052;20.430;2022-09-09T08:13:41;34.05;;;16.85;;
22573;SDS011;11453;52.052;20.430;2022-09-09T08:16:09;34.38;;;17.05;;
22573;SDS011;11453;52.052;20.430;2022-09-09T08:18:35;36.65;;;17.33;;
22573;SDS011;11453;52.052;20.430;2022-09-09T08:23:40;36.15;;;17.55;;
22573;SDS011;11453;52.052;20.430;2022-09-09T08:26:11;39.00;;;17.23;;
22573;SDS011;11453;52.052;20.430;2022-09-09T08:28:37;39.40;;;17.42;;
22573;SDS011;11453;52.052;20.430;2022-09-09T08:31:08;37.33;;;18.38;;
22573;SDS011;11453;52.052;20.430;2022-09-09T08:33:36;36.85;;;17.92;;
22573;SDS011;11453;52.052;20.430;2022-09-09T08:36:03;36.08;;;17.00;;
22573;SDS011;11453;52.052;20.430;2022-09-09T08:38:30;38.13;;;17.35;;
22573;SDS011;11453;52.052;20.430;2022-09-09T08:40:58;35.60;;;17.85;;
22573;SDS011;11453;52.052;20.430;2022-09-09T08:43:48;34.97;;;17.42;;
22573;SDS011;11453;52.052;20.430;2022-09-09T08:46:29;33.85;;;16.85;;
22573;SDS011;11453;52.052;20.430;2022-09-09T08:51:58;36.08;;;17.85;;
22573;SDS011;11453;52.052;20.430;2022-09-09T08:54:24;34.55;;;18.33;;
22573;SDS011;11453;52.052;20.430;2022-09-09T08:56:53;33.42;;;17.83;;
22573;SDS011;11453;52.052;20.430;2022-09-09T08:59:18;35.20;;;17.90;;
22573;SDS011;11453;52.052;20.430;2022-09-09T09:12:42;37.10;;;18.13;;
22573;SDS011;11453;52.052;20.430;2022-09-09T09:15:11;33.97;;;17.48;;
22573;SDS011;11453;52.052;20.430;2022-09-09T09:18:02;36.38;;;17.45;;
22573;SDS011;11453;52.052;20.430;2022-09-09T09:21:02;38.38;;;18.10;;
22573;SDS011;11453;52.052;20.430;2022-09-09T09:23:59;36.75;;;18.40;;
22573;SDS011;11453;52.052;20.430;2022-09-09T09:26:35;31.77;;;17.15;;
22573;SDS011;11453;52.052;20.430;2022-09-09T09:29:11;35.08;;;18.42;;
22573;SDS011;11453;52.052;20.430;2022-09-09T09:31:42;34.13;;;18.05;;
22573;SDS011;11453;52.052;20.430;2022-09-09T09:34:10;35.30;;;18.23;;
22573;SDS011;11453;52.052;20.430;2022-09-09T09:37:11;33.47;;;17.77;;
22573;SDS011;11453;52.052;20.430;2022-09-09T09:39:37;33.35;;;17.98;;
22573;SDS011;11453;52.052;20.430;2022-09-09T09:42:08;38.78;;;19.33;;
22573;SDS011;11453;52.052;20.430;2022-09-09T09:44:39;33.95;;;17.88;;
22573;SDS011;11453;52.052;20.430;2022-09-09T09:49:31;36.20;;;18.40;;
22573;SDS011;11453;52.052;20.430;2022-09-09T09:52:03;32.70;;;18.13;;
22573;SDS011;11453;52.052;20.430;2022-09-09T09:54:37;36.42;;;19.50;;
22573;SDS011;11453;52.052;20.430;2022-09-09T09:57:10;33.15;;;17.85;;
22573;SDS011;11453;52.052;20.430;2022-09-09T09:59:38;32.72;;;17.90;;
22573;SDS011;11453;52.052;20.430;2022-09-09T10:02:13;38.72;;;19.42;;
22573;SDS011;11453;52.052;20.430;2022-09-09T10:04:42;36.17;;;18.63;;
22573;SDS011;11453;52.052;20.430;2022-09-09T10:07:17;36.85;;;19.13;;
22573;SDS011;11453;52.052;20.430;2022-09-09T10:09:52;35.50;;;18.70;;
22573;SDS011;11453;52.052;20.430;2022-09-09T10:15:14;43.42;;;20.55;;
22573;SDS011;11453;52.052;20.430;2022-09-09T10:31:15;36.42;;;18.98;;
22573;SDS011;11453;52.052;20.430;2022-09-09T10:34:57;32.47;;;19.20;;
22573;SDS011;11453;52.052;20.430;2022-09-09T10:40:02;35.15;;;18.30;;
22573;SDS011;11453;52.052;20.430;2022-09-09T10:42:43;31.98;;;18.33;;
22573;SDS011;11453;52.052;20.430;2022-09-09T10:45:15;32.90;;;18.02;;
22573;SDS011;11453;52.052;20.430;2022-09-09T10:50:56;35.38;;;19.45;;
22573;SDS011;11453;52.052;20.430;2022-09-09T10:53:51;32.35;;;18.95;;
22573;SDS011;11453;52.052;20.430;2022-09-09T10:56:18;31.70;;;17.55;;
22573;SDS011;11453;52.052;20.430;2022-09-09T10:58:50;34.38;;;17.92;;
22573;SDS011;11453;52.052;20.430;2022-09-09T11:01:24;33.13;;;18.05;;
22573;SDS011;11453;52.052;20.430;2022-09-09T11:03:54;30.08;;;17.38;;
22573;SDS011;11453;52.052;20.430;2022-09-09T11:06:32;32.38;;;16.92;;
22573;SDS011;11453;52.052;20.430;2022-09-09T11:09:03;30.58;;;17.92;;
22573;SDS011;11453;52.052;20.430;2022-09-09T11:11:35;28.33;;;16.60;;
22573;SDS011;11453;52.052;20.430;2022-09-09T11:14:14;30.13;;;17.40;;
22573;SDS011;11453;52.052;20.430;2022-09-09T11:16:53;31.77;;;17.10;;
22573;SDS011;11453;52.052;20.430;2022-09-09T11:22:02;29.55;;;16.58;;
22573;SDS011;11453;52.052;20.430;2022-09-09T11:27:15;28.85;;;16.52;;
22573;SDS011;11453;52.052;20.430;2022-09-09T11:29:52;25.35;;;14.35;;
22573;SDS011;11453;52.052;20.430;2022-09-09T11:42:47;24.67;;;15.35;;
22573;SDS011;11453;52.052;20.430;2022-09-09T11:45:24;26.02;;;15.85;;
22573;SDS011;11453;52.052;20.430;2022-09-09T11:47:54;27.98;;;16.13;;
22573;SDS011;11453;52.052;20.430;2022-09-09T11:52:48;26.02;;;15.23;;
22573;SDS011;11453;52.052;20.430;2022-09-09T12:00:44;27.80;;;16.52;;
22573;SDS011;11453;52.052;20.430;2022-09-09T12:06:27;27.88;;;17.23;;
22573;SDS011;11453;52.052;20.430;2022-09-09T12:08:58;28.25;;;16.98;;
22573;SDS011;11453;52.052;20.430;2022-09-09T12:11:33;31.60;;;17.77;;
22573;SDS011;11453;52.052;20.430;2022-09-09T12:13:59;31.85;;;16.83;;
22573;SDS011;11453;52.052;20.430;2022-09-09T12:16:29;32.53;;;18.35;;
22573;SDS011;11453;52.052;20.430;2022-09-09T12:27:43;27.20;;;16.00;;
22573;SDS011;11453;52.052;20.430;2022-09-09T12:30:33;32.03;;;17.73;;
22573;SDS011;11453;52.052;20.430;2022-09-09T12:33:10;32.38;;;19.13;;
22573;SDS011;11453;52.052;20.430;2022-09-09T12:35:38;30.98;;;18.88;;
22573;SDS011;11453;52.052;20.430;2022-09-09T12:38:06;30.00;;;18.38;;
22573;SDS011;11453;52.052;20.430;2022-09-09T12:40:57;32.10;;;18.13;;
22573;SDS011;11453;52.052;20.430;2022-09-09T12:43:24;29.88;;;18.20;;
22573;SDS011;11453;52.052;20.430;2022-09-09T12:45:51;29.83;;;18.48;;
22573;SDS011;11453;52.052;20.430;2022-09-09T12:48:35;26.50;;;16.45;;
22573;SDS011;11453;52.052;20.430;2022-09-09T12:51:03;27.95;;;17.02;;
22573;SDS011;11453;52.052;20.430;2022-09-09T12:53:34;25.23;;;15.45;;
22573;SDS011;11453;52.052;20.430;2022-09-09T12:56:03;27.63;;;16.20;;
22573;SDS011;11453;52.052;20.430;2022-09-09T12:58:33;27.60;;;16.10;;
22573;SDS011;11453;52.052;20.430;2022-09-09T13:01:01;23.77;;;14.93;;
22573;SDS011;11453;52.052;20.430;2022-09-09T13:03:32;22.90;;;14.70;;
22573;SDS011;11453;52.052;20.430;2022-09-09T13:06:09;22.48;;;13.77;;
22573;SDS011;11453;52.052;20.430;2022-09-09T13:08:37;22.27;;;12.48;;
22573;SDS011;11453;52.052;20.430;2022-09-09T13:11:04;20.13;;;12.23;;
22573;SDS011;11453;52.052;20.430;2022-09-09T13:13:36;22.33;;;13.97;;
22573;SDS011;11453;52.052;20.430;2022-09-09T13:16:06;21.60;;;12.35;;
22573;SDS011;11453;52.052;20.430;2022-09-09T13:18:44;20.58;;;12.80;;
22573;SDS011;11453;52.052;20.430;2022-09-09T13:21:11;21.92;;;13.32;;
22573;SDS011;11453;52.052;20.430;2022-09-09T13:23:38;21.23;;;13.45;;
22573;SDS011;11453;52.052;20.430;2022-09-09T13:26:05;18.50;;;12.02;;
22573;SDS011;11453;52.052;20.430;2022-09-09T13:28:51;20.65;;;12.02;;
22573;SDS011;11453;52.052;20.430;2022-09-09T13:33:46;19.95;;;11.05;;
22573;SDS011;11453;52.052;20.430;2022-09-09T13:36:12;17.48;;;11.13;;
22573;SDS011;11453;52.052;20.430;2022-09-09T13:38:56;17.25;;;11.20;;
22573;SDS011;11453;52.052;20.430;2022-09-09T13:44:14;16.65;;;10.30;;
22573;SDS011;11453;52.052;20.430;2022-09-09T13:46:48;16.08;;;10.23;;
22573;SDS011;11453;52.052;20.430;2022-09-09T13:49:30;15.63;;;8.90;;
22573;SDS011;11453;52.052;20.430;2022-09-09T13:54:41;15.88;;;9.85;;
22573;SDS011;11453;52.052;20.430;2022-09-09T13:57:14;17.58;;;11.70;;
22573;SDS011;11453;52.052;20.430;2022-09-09T13:59:42;18.80;;;12.15;;
22573;SDS011;11453;52.052;20.430;2022-09-09T14:02:08;19.33;;;11.50;;
22573;SDS011;11453;52.052;20.430;2022-09-09T14:04:33;16.92;;;10.38;;
22573;SDS011;11453;52.052;20.430;2022-09-09T14:07:00;17.48;;;10.25;;
22573;SDS011;11453;52.052;20.430;2022-09-09T14:09:26;16.27;;;10.65;;
22573;SDS011;11453;52.052;20.430;2022-09-09T14:11:51;17.65;;;10.15;;
22573;SDS011;11453;52.052;20.430;2022-09-09T14:14:17;16.50;;;9.63;;
22573;SDS011;11453;52.052;20.430;2022-09-09T14:16:43;16.02;;;10.15;;
